ePrivacy and GPDR Cookie Consent by Cookie Consent
EmailTwitter


Observations de surface / France / LFBO (07630)

Régions: Québec | Canada | États-Unis | Europe | France | UK | Ailleurs
Station
Affichage
Infos & localisation pour LFBO (07630) | Aide pour décoder les METARs

Observations prises le 2021-04-10 à 21H30 UTC à TOULOUSE/BLAGNAC, FR (LFBO)

Etat du ciel: couvert.

Température: 12.0 Celsius

Point de rosée: 10.0 Celsius

Humidité relative: 88%

Facteur vent: 9.

Vents: Sud-est à 30 km/h ou 16 noeuds.

Pression au niveau moyen de la mer: 101.10 kilopascals.

Visibilité horizontale: 6.21 milles terrestres ou 9.94 kilomètres.

Hauteur du plafond: 396 mètres ( 1300 pieds ).

Observation METAR:

LFBO 102130Z AUTO 14016KT 9999 OVC013 12/10 Q1011 TEMPO OVC007=